Time;durP1;ratioP1;P1;durP2;ratioP2;P2;SDS_P1;SDS_P2;PMS_P1;PMS_P2;Temp;Humidity;BMP_temperature;BMP_pressure;BME280_temperature;BME280_humidity;BME280_pressure;Samples;Min_cycle;Max_cycle;Signal;HPM_P1;HPM_P2
2022/03/05 00:01:02;;;;;;;40.47;17.25;;;;;;;-2.46;91.46;99219.53;4194493;28;20090;-71
2022/03/05 00:03:03;;;;;;;36.53;16.02;;;;;;;-2.41;90.57;99210.56;4194625;28;20040;-71
2022/03/05 00:05:03;;;;;;;33.20;15.32;;;;;;;-2.39;90.70;99208.41;4190965;28;20055;-71
2022/03/05 00:07:04;;;;;;;34.10;15.75;;;;;;;-2.36;90.32;99205.16;4192008;28;20060;-71
2022/03/05 00:09:04;;;;;;;38.60;14.85;;;;;;;-2.36;90.00;99203.25;4195043;28;20040;-71
2022/03/05 00:11:05;;;;;;;37.08;15.23;;;;;;;-2.35;89.81;99196.75;4193631;28;20055;-71
2022/03/05 00:13:05;;;;;;;37.33;15.00;;;;;;;-2.34;90.10;99200.25;4193714;28;20124;-71
2022/03/05 00:15:06;;;;;;;34.55;15.23;;;;;;;-2.41;90.09;99192.41;4194127;28;20333;-71
2022/03/05 00:17:07;;;;;;;37.72;14.10;;;;;;;-2.44;90.22;99195.69;4191471;28;20056;-71
2022/03/05 00:19:07;;;;;;;32.25;13.82;;;;;;;-2.49;90.39;99200.28;4190217;28;20461;-71
2022/03/05 00:21:07;;;;;;;30.42;13.05;;;;;;;-2.53;90.75;99189.22;4194559;28;20040;-71
2022/03/05 00:23:08;;;;;;;32.83;13.68;;;;;;;-2.48;90.13;99180.25;4192685;28;20352;-71
2022/03/05 00:25:10;;;;;;;35.97;15.60;;;;;;;-2.47;90.00;99181.88;4193770;28;20067;-71
2022/03/05 00:27:10;;;;;;;34.00;14.80;;;;;;;-2.55;90.43;99178.66;4192175;28;20051;-71
2022/03/05 00:29:11;;;;;;;29.80;13.43;;;;;;;-2.62;90.87;99180.03;4192843;28;20037;-71
2022/03/05 00:31:11;;;;;;;36.38;14.60;;;;;;;-2.66;92.82;99184.34;4193390;28;20758;-72
2022/03/05 00:33:12;;;;;;;35.72;15.98;;;;;;;-2.70;92.31;99181.38;4192902;28;20029;-72
2022/03/05 00:35:12;;;;;;;33.50;14.13;;;;;;;-2.78;92.84;99168.41;4192830;28;20147;-71
2022/03/05 00:37:13;;;;;;;33.28;14.45;;;;;;;-2.78;92.24;99184.66;4192902;28;20083;-71
2022/03/05 00:39:13;;;;;;;39.03;16.67;;;;;;;-2.80;92.68;99183.31;4193047;28;20138;-71
2022/03/05 00:41:13;;;;;;;36.88;15.90;;;;;;;-2.87;92.42;99178.97;4193109;28;20443;-72
2022/03/05 00:43:14;;;;;;;37.53;16.55;;;;;;;-2.89;92.13;99180.34;4193675;28;20115;-71
2022/03/05 00:45:14;;;;;;;43.85;16.92;;;;;;;-2.90;92.15;99184.13;4192880;28;20136;-71
2022/03/05 00:47:16;;;;;;;34.63;15.23;;;;;;;-2.91;92.78;99180.59;4191289;28;20095;-71
2022/03/05 00:49:16;;;;;;;39.72;16.90;;;;;;;-2.96;93.26;99185.22;4191417;28;20063;-72
2022/03/05 00:51:17;;;;;;;34.63;15.45;;;;;;;-2.95;93.28;99178.72;4193036;28;20037;-71
2022/03/05 00:53:18;;;;;;;33.95;13.80;;;;;;;-2.99;93.32;99175.72;4193006;28;20094;-71
2022/03/05 00:55:18;;;;;;;33.17;14.70;;;;;;;-3.01;93.76;99179.81;4193478;28;20594;-71
2022/03/05 00:57:18;;;;;;;33.60;15.15;;;;;;;-3.03;94.74;99185.50;4190442;28;20115;-71
2022/03/05 00:59:19;;;;;;;36.53;15.85;;;;;;;-3.04;94.44;99181.16;4191958;28;20055;-72
2022/03/05 01:01:19;;;;;;;33.20;14.60;;;;;;;-3.03;94.24;99180.06;4192515;28;20032;-72
2022/03/05 01:03:19;;;;;;;35.42;13.80;;;;;;;-3.03;93.85;99177.38;4192292;28;20098;-71
2022/03/05 01:05:20;;;;;;;33.28;13.90;;;;;;;-3.04;93.29;99181.16;4193351;28;20059;-72
2022/03/05 01:07:20;;;;;;;37.22;15.18;;;;;;;-3.05;93.97;99181.44;4191693;28;20128;-72
2022/03/05 01:09:20;;;;;;;33.70;14.82;;;;;;;-3.05;94.39;99184.97;4190340;28;20499;-72
2022/03/05 01:11:21;;;;;;;29.67;14.23;;;;;;;-3.02;94.23;99175.47;4193756;28;20653;-72
2022/03/05 01:13:22;;;;;;;36.00;14.45;;;;;;;-2.99;94.35;99183.84;4191824;28;20479;-72
2022/03/05 01:15:22;;;;;;;28.27;13.40;;;;;;;-3.00;93.47;99174.09;4186866;28;20543;-71
2022/03/05 01:17:23;;;;;;;34.08;14.50;;;;;;;-2.97;93.25;99173.59;4192332;28;20178;-71
2022/03/05 01:19:23;;;;;;;35.63;13.13;;;;;;;-2.98;92.41;99173.84;4191448;28;20419;-72
2022/03/05 01:21:23;;;;;;;35.70;14.63;;;;;;;-3.00;92.71;99176.00;4191759;28;20072;-72
2022/03/05 01:23:24;;;;;;;39.20;14.52;;;;;;;-2.99;93.04;99172.22;4193830;28;20521;-71
2022/03/05 01:25:24;;;;;;;31.67;12.90;;;;;;;-3.03;92.76;99169.25;4192038;28;20049;-72
2022/03/05 01:27:24;;;;;;;34.78;14.45;;;;;;;-3.02;91.80;99170.06;4190723;28;20135;-71
2022/03/05 01:29:25;;;;;;;33.20;14.45;;;;;;;-3.01;92.38;99168.97;4192663;28;20463;-71
2022/03/05 01:31:25;;;;;;;34.92;14.05;;;;;;;-3.00;92.05;99176.00;4191511;28;20040;-71
2022/03/05 01:33:26;;;;;;;36.72;13.65;;;;;;;-3.02;92.56;99168.16;4190605;28;20041;-72
2022/03/05 01:35:26;;;;;;;29.80;12.55;;;;;;;-3.08;93.48;99169.25;4192304;28;20044;-72
2022/03/05 01:37:26;;;;;;;29.75;12.82;;;;;;;-3.07;93.84;99176.28;4191674;28;20541;-72
2022/03/05 01:39:27;;;;;;;34.45;14.43;;;;;;;-3.07;94.03;99172.75;4189725;28;20079;-72
2022/03/05 01:41:28;;;;;;;30.48;13.02;;;;;;;-3.12;94.36;99168.19;4191974;28;20045;-72
2022/03/05 01:43:28;;;;;;;29.42;13.48;;;;;;;-3.12;93.69;99170.88;4190289;28;20048;-72
2022/03/05 01:45:30;;;;;;;30.60;13.18;;;;;;;-3.10;93.10;99168.72;4192335;28;20045;-72
2022/03/05 01:47:30;;;;;;;29.57;12.80;;;;;;;-3.08;93.02;99171.13;4191537;28;20087;-72
2022/03/05 01:49:31;;;;;;;35.50;14.05;;;;;;;-3.06;92.87;99163.56;4190439;28;20675;-72
2022/03/05 01:51:31;;;;;;;32.35;12.40;;;;;;;-3.07;92.39;99170.06;4192683;28;20476;-72
2022/03/05 01:53:31;;;;;;;39.55;13.35;;;;;;;-3.12;93.32;99160.88;4190204;28;20036;-72
2022/03/05 01:55:32;;;;;;;30.20;12.23;;;;;;;-3.16;93.47;99165.19;4190520;28;20039;-72
2022/03/05 01:57:32;;;;;;;31.02;12.52;;;;;;;-3.15;94.04;99161.38;4188372;28;20036;-72
2022/03/05 01:59:33;;;;;;;27.42;12.48;;;;;;;-3.14;94.15;99168.47;4191491;28;20526;-72
2022/03/05 02:01:34;;;;;;;30.83;14.50;;;;;;;-3.15;94.21;99163.28;4191887;28;20449;-72
2022/03/05 02:03:37;;;;;;;33.13;12.55;;;;;;;-3.14;93.86;99156.81;4191175;28;20474;-72
2022/03/05 02:05:37;;;;;;;;;;;;;;;-3.12;92.97;99166.28;4189661;28;20041;-72
2022/03/05 02:07:38;;;;;;;26.48;11.95;;;;;;;-3.13;93.31;99159.25;4191947;28;19912;-72
2022/03/05 02:09:38;;;;;;;27.45;11.55;;;;;;;-3.13;93.93;99156.53;4192918;28;20227;-71
2022/03/05 02:11:39;;;;;;;32.25;12.52;;;;;;;-3.08;94.09;99154.91;4192007;28;20427;-71
2022/03/05 02:13:41;;;;;;;29.80;11.43;;;;;;;-3.06;93.74;99158.13;4190470;28;20044;-71
2022/03/05 02:15:41;;;;;;;33.13;13.48;;;;;;;-3.03;93.84;99163.84;4192626;28;20376;-71
2022/03/05 02:17:41;;;;;;;28.75;11.85;;;;;;;-3.05;93.98;99152.47;4191347;28;20051;-71
2022/03/05 02:19:42;;;;;;;31.83;13.23;;;;;;;-3.07;95.06;99148.41;4193659;28;20063;-71
2022/03/05 02:21:45;;;;;;;32.70;11.85;;;;;;;-3.07;95.12;99151.09;4191040;28;20167;-72
2022/03/05 02:23:45;;;;;;;29.48;12.52;;;;;;;-3.10;94.88;99141.63;4191530;28;20052;-71
2022/03/05 02:26:05;;;;;;;22.95;10.80;;;;;;;-3.15;95.21;99153.28;4188599;28;20482;-72
2022/03/05 02:28:06;;;;;;;25.02;12.02;;;;;;;-3.19;95.82;99159.50;4184025;28;20037;-72
2022/03/05 02:30:07;;;;;;;25.73;12.18;;;;;;;-3.19;95.73;99140.56;4185782;28;20482;-72
2022/03/05 02:32:08;;;;;;;29.10;12.48;;;;;;;-3.18;94.75;99151.13;4185573;28;20037;-72
2022/03/05 02:34:08;;;;;;;30.38;12.70;;;;;;;-3.15;95.07;99150.56;4190803;28;20043;-72
2022/03/05 02:36:10;;;;;;;27.85;12.20;;;;;;;-3.14;94.33;99144.09;4193002;28;20157;-72
2022/03/05 02:38:15;;;;;;;32.03;12.60;;;;;;;-3.08;93.93;99144.88;4184771;28;20032;-72
2022/03/05 02:40:15;;;;;;;30.55;13.10;;;;;;;-3.07;94.70;99151.09;4182407;28;20452;-72
2022/03/05 02:42:17;;;;;;;24.98;11.50;;;;;;;-3.11;94.14;99134.59;4186265;28;20348;-72
2022/03/05 02:44:17;;;;;;;27.90;12.40;;;;;;;-3.13;94.41;99134.88;4186485;28;20174;-72
2022/03/05 02:46:18;;;;;;;28.27;12.95;;;;;;;-3.14;95.21;99135.97;4187487;28;20036;-72
2022/03/05 02:48:20;;;;;;;29.10;11.88;;;;;;;-3.18;95.57;99139.47;4200666;28;20020;-72
2022/03/05 02:50:20;;;;;;;29.08;11.90;;;;;;;-3.21;95.22;99130.03;4201103;28;20222;-72
2022/03/05 02:52:20;;;;;;;26.77;11.48;;;;;;;-3.22;95.57;99130.28;4192539;28;20074;-72
2022/03/05 02:54:21;;;;;;;28.88;12.07;;;;;;;-3.22;95.04;99128.41;4189265;28;20399;-72
2022/03/05 02:56:21;;;;;;;25.35;11.23;;;;;;;-3.26;95.30;99121.09;4189379;28;20460;-72
2022/03/05 02:58:22;;;;;;;28.48;11.15;;;;;;;-3.29;95.96;99135.97;4189709;28;20137;-72
2022/03/05 03:00:22;;;;;;;29.88;12.70;;;;;;;-3.25;95.27;99134.34;4188795;28;20044;-72
2022/03/05 03:02:23;;;;;;;28.10;12.40;;;;;;;-3.22;94.55;99138.41;4189208;28;20137;-72
2022/03/05 03:04:23;;;;;;;30.08;11.88;;;;;;;-3.31;94.24;99130.03;4197955;28;20482;-71
2022/03/05 03:06:23;;;;;;;31.77;12.60;;;;;;;-3.32;94.49;99139.22;4194024;28;20097;-71
2022/03/05 03:08:24;;;;;;;30.02;11.52;;;;;;;-3.34;94.64;99135.97;4188440;28;20099;-71
2022/03/05 03:10:24;;;;;;;27.70;11.88;;;;;;;-3.37;95.51;99138.41;4189279;28;20049;-72
2022/03/05 03:12:26;;;;;;;29.45;12.13;;;;;;;-3.36;95.46;99131.91;4190627;28;20057;-72
2022/03/05 03:14:26;;;;;;;29.45;12.52;;;;;;;-3.35;94.63;99136.25;4189832;28;20464;-72
2022/03/05 03:16:26;;;;;;;29.88;11.43;;;;;;;-3.38;95.31;99140.31;4193865;28;20032;-72
2022/03/05 03:18:27;;;;;;;30.02;12.93;;;;;;;-3.42;96.27;99145.44;4188209;28;20059;-72
2022/03/05 03:20:28;;;;;;;29.42;11.30;;;;;;;-3.41;97.41;99152.47;4195478;28;20199;-72
2022/03/05 03:22:28;;;;;;;26.77;11.45;;;;;;;-3.46;98.10;99144.38;4188495;28;20393;-72
2022/03/05 03:24:29;;;;;;;36.30;14.02;;;;;;;-3.43;98.65;99151.94;4191900;28;20090;-72
2022/03/05 03:26:30;;;;;;;35.85;13.52;;;;;;;-3.42;99.11;99145.44;4203963;28;20048;-71
2022/03/05 03:28:30;;;;;;;34.42;13.10;;;;;;;-3.40;98.86;99156.78;4202760;28;20382;-72
2022/03/05 03:30:31;;;;;;;31.95;11.90;;;;;;;-3.36;98.49;99164.38;4203279;28;20288;-72
2022/03/05 03:32:31;;;;;;;32.13;13.00;;;;;;;-3.35;99.59;99147.88;4203715;28;20407;-72
2022/03/05 03:34:32;;;;;;;32.75;13.25;;;;;;;-3.33;100.00;99147.59;4200769;28;20048;-72
2022/03/05 03:36:32;;;;;;;27.00;12.13;;;;;;;-3.32;100.00;99154.63;4187711;28;20684;-71
2022/03/05 03:38:32;;;;;;;29.13;13.00;;;;;;;-3.36;100.00;99143.56;4201735;28;20405;-71
2022/03/05 03:40:33;;;;;;;32.42;11.80;;;;;;;-3.35;100.00;99150.59;4192437;28;20056;-71
2022/03/05 03:42:34;;;;;;;31.20;13.13;;;;;;;-3.36;100.00;99148.16;4188189;28;20131;-71
2022/03/05 03:44:34;;;;;;;31.42;11.57;;;;;;;-3.40;100.00;99145.97;4191008;28;20114;-71
2022/03/05 03:46:35;;;;;;;26.30;11.18;;;;;;;-3.43;100.00;99143.00;4203173;28;20052;-71
2022/03/05 03:48:35;;;;;;;29.05;11.93;;;;;;;-3.44;100.00;99146.81;4198467;28;20048;-72
2022/03/05 03:50:35;;;;;;;23.33;10.45;;;;;;;-3.48;100.00;99143.00;4198117;28;20212;-72
2022/03/05 03:52:36;;;;;;;29.80;12.05;;;;;;;-3.49;100.00;99149.50;4191051;28;20036;-71
2022/03/05 03:54:36;;;;;;;32.38;12.30;;;;;;;-3.50;100.00;99148.69;4188416;28;20037;-72
2022/03/05 03:56:36;;;;;;;29.70;11.15;;;;;;;-3.53;98.89;99145.72;4187601;28;20041;-71
2022/03/05 03:58:36;;;;;;;25.40;11.63;;;;;;;-3.51;98.73;99152.47;4188604;28;20518;-71
2022/03/05 04:00:37;;;;;;;30.05;12.68;;;;;;;-3.48;97.83;99153.81;4186956;28;20131;-71
2022/03/05 04:02:38;;;;;;;27.15;12.27;;;;;;;-3.49;97.05;99144.88;4194170;28;20376;-71
2022/03/05 04:04:38;;;;;;;30.77;11.80;;;;;;;-3.50;96.85;99154.09;4187503;28;20043;-71
2022/03/05 04:08:58;;;;;;;26.55;11.38;;;;;;;-3.51;96.04;99154.38;4187924;28;20745;-71
2022/03/05 04:10:58;;;;;;;29.38;12.35;;;;;;;-3.52;96.00;99160.84;4196209;28;20143;-71
2022/03/05 04:12:58;;;;;;;26.85;11.93;;;;;;;-3.53;95.51;99151.94;4204243;28;20070;-71
2022/03/05 04:14:59;;;;;;;31.70;12.65;;;;;;;-3.56;96.38;99155.16;4188659;28;20041;-71
2022/03/05 04:17:00;;;;;;;30.48;12.48;;;;;;;-3.59;96.63;99158.41;4187427;28;20055;-71
2022/03/05 04:19:00;;;;;;;22.50;11.32;;;;;;;-3.58;97.07;99164.63;4187685;28;20068;-71
2022/03/05 04:21:01;;;;;;;32.60;12.70;;;;;;;-3.60;97.25;99166.81;4187920;28;20114;-72
2022/03/05 04:23:02;;;;;;;30.42;11.80;;;;;;;-3.63;97.19;99164.66;4187952;28;20427;-72
2022/03/05 04:25:03;;;;;;;31.13;11.73;;;;;;;-3.64;97.59;99163.84;4188147;28;20188;-72
2022/03/05 04:27:03;;;;;;;30.65;13.10;;;;;;;-3.67;98.16;99170.56;4186956;28;20105;-72
2022/03/05 04:29:04;;;;;;;30.58;12.73;;;;;;;-3.70;97.69;99168.41;4187740;28;20044;-72
2022/03/05 04:31:04;;;;;;;26.75;11.85;;;;;;;-3.70;98.03;99167.59;4187879;28;20055;-72
2022/03/05 04:33:05;;;;;;;30.70;11.65;;;;;;;-3.69;97.68;99171.94;4187364;28;20044;-72
2022/03/05 04:35:06;;;;;;;30.83;12.25;;;;;;;-3.71;97.08;99169.50;4188002;28;20051;-72
2022/03/05 04:37:06;;;;;;;28.63;12.93;;;;;;;-3.69;97.11;99180.03;4199507;28;20040;-72
2022/03/05 04:39:07;;;;;;;27.98;11.27;;;;;;;-3.70;96.40;99175.72;4201533;28;20142;-72
2022/03/05 04:41:07;;;;;;;33.65;14.00;;;;;;;-3.68;96.60;99170.84;4202545;28;20123;-72
2022/03/05 04:43:08;;;;;;;32.67;13.15;;;;;;;-3.70;96.35;99176.53;4201997;28;20436;-72
2022/03/05 04:45:09;;;;;;;31.33;12.35;;;;;;;-3.69;97.45;99172.75;4203039;28;20087;-72
2022/03/05 04:47:09;;;;;;;35.95;14.18;;;;;;;-3.64;96.90;99174.66;4200738;28;20534;-72
2022/03/05 04:49:10;;;;;;;30.58;12.77;;;;;;;-3.64;95.87;99176.50;4187174;28;20044;-72
2022/03/05 04:51:10;;;;;;;31.42;13.63;;;;;;;-3.64;96.70;99171.09;4187859;28;20044;-72
2022/03/05 04:53:10;;;;;;;33.05;13.25;;;;;;;-3.67;96.57;99167.88;4187329;28;20735;-72
2022/03/05 04:55:11;;;;;;;30.67;12.63;;;;;;;-3.65;96.54;99167.59;4187457;28;20051;-72
2022/03/05 04:57:12;;;;;;;27.80;11.85;;;;;;;-3.65;97.00;99173.00;4186659;28;20044;-72
2022/03/05 04:59:12;;;;;;;36.08;14.65;;;;;;;-3.67;96.17;99173.28;4187066;28;20579;-72
2022/03/05 05:01:12;;;;;;;30.73;13.45;;;;;;;-3.68;97.09;99174.34;4192265;28;20500;-72
2022/03/05 05:03:13;;;;;;;35.72;12.50;;;;;;;-3.68;96.94;99178.97;4193137;28;20055;-72
2022/03/05 05:05:13;;;;;;;36.85;14.32;;;;;;;-3.71;97.21;99171.38;4187292;28;20052;-71
2022/03/05 05:07:14;;;;;;;31.92;13.52;;;;;;;-3.71;97.04;99174.09;4186252;28;20055;-71
2022/03/05 05:09:14;;;;;;;29.35;13.38;;;;;;;-3.74;97.26;99180.03;4187025;28;20044;-71
2022/03/05 05:11:15;;;;;;;24.42;12.43;;;;;;;-3.79;97.50;99175.44;4187903;28;20231;-71
2022/03/05 05:13:15;;;;;;;29.33;13.07;;;;;;;-3.77;97.45;99175.97;4186957;28;20047;-71
2022/03/05 05:15:15;;;;;;;30.10;11.68;;;;;;;-3.78;97.33;99181.66;4215820;28;20039;-71
2022/03/05 05:17:16;;;;;;;29.98;12.60;;;;;;;-3.80;98.53;99184.63;4192496;28;20041;-72
2022/03/05 05:19:27;;;;;;;28.88;13.00;;;;;;;-3.78;98.26;99197.88;4187012;28;20044;-72
2022/03/05 05:21:27;;;;;;;33.10;13.82;;;;;;;-3.79;98.31;99183.53;4187149;28;20119;-72
2022/03/05 05:23:27;;;;;;;31.80;13.90;;;;;;;-3.77;99.02;99189.50;4186898;28;20060;-72
2022/03/05 05:25:28;;;;;;;37.25;15.10;;;;;;;-3.75;99.12;99192.72;4188810;28;20092;-72
2022/03/05 05:27:28;;;;;;;32.72;13.27;;;;;;;-3.75;99.78;99192.72;4190014;28;20806;-72
2022/03/05 05:29:28;;;;;;;31.77;14.48;;;;;;;-3.70;99.75;99202.75;4186492;28;20143;-72
2022/03/05 05:31:29;;;;;;;38.05;15.27;;;;;;;-3.71;99.48;99201.94;4191536;28;20044;-72
2022/03/05 05:33:29;;;;;;;35.50;13.95;;;;;;;-3.70;99.89;99192.75;4201729;28;20071;-72
2022/03/05 05:35:30;;;;;;;31.77;13.93;;;;;;;-3.67;100.00;99204.91;4185887;28;20051;-72
2022/03/05 05:37:30;;;;;;;29.92;13.65;;;;;;;-3.62;99.39;99201.44;4185971;28;20044;-72
2022/03/05 05:39:31;;;;;;;31.92;14.82;;;;;;;-3.62;99.06;99196.81;4186840;28;20064;-72
2022/03/05 05:41:31;;;;;;;33.65;14.52;;;;;;;-3.61;99.30;99198.44;4186980;28;20045;-72
2022/03/05 05:43:32;;;;;;;32.75;13.90;;;;;;;-3.61;99.63;99208.47;4186504;28;20291;-72
2022/03/05 05:45:32;;;;;;;32.88;13.85;;;;;;;-3.61;99.57;99205.75;4190097;28;20044;-71
2022/03/05 05:47:33;;;;;;;34.88;14.25;;;;;;;-3.58;98.94;99210.63;4200906;28;20060;-71
2022/03/05 05:49:33;;;;;;;31.42;13.85;;;;;;;-3.58;98.83;99203.31;4197499;28;20041;-71
2022/03/05 05:51:33;;;;;;;31.77;13.43;;;;;;;-3.58;98.67;99197.09;4186439;28;20082;-72
2022/03/05 05:53:34;;;;;;;34.67;14.23;;;;;;;-3.57;97.83;99204.13;4186693;28;20040;-72
2022/03/05 05:55:34;;;;;;;28.30;13.82;;;;;;;-3.57;97.63;99196.81;4186493;28;20119;-72
2022/03/05 05:57:34;;;;;;;31.38;12.80;;;;;;;-3.56;96.85;99203.03;4191950;28;20140;-72
2022/03/05 05:59:35;;;;;;;28.35;13.60;;;;;;;-3.58;96.60;99197.09;4201632;28;20035;-72
2022/03/05 06:01:35;;;;;;;33.55;13.13;;;;;;;-3.59;97.47;99206.28;4201393;28;20118;-71
2022/03/05 06:03:36;;;;;;;29.88;13.32;;;;;;;-3.59;97.88;99207.09;4201681;28;20125;-71
2022/03/05 06:05:36;;;;;;;34.35;13.25;;;;;;;-3.58;97.76;99216.03;4201532;28;20048;-72
2022/03/05 06:07:37;;;;;;;37.50;13.48;;;;;;;-3.56;96.46;99206.56;4200476;28;20521;-72
2022/03/05 06:09:37;;;;;;;28.92;13.43;;;;;;;-3.55;97.45;99212.81;4201123;28;20542;-72
2022/03/05 06:11:37;;;;;;;31.02;12.95;;;;;;;-3.55;96.84;99210.09;4189085;28;20080;-72
2022/03/05 06:13:38;;;;;;;34.33;13.60;;;;;;;-3.56;96.28;99216.56;4201226;28;20331;-71
2022/03/05 06:15:38;;;;;;;31.55;12.70;;;;;;;-3.57;97.47;99209.53;4200645;28;20814;-72
2022/03/05 06:17:43;;;;;;;29.13;12.93;;;;;;;-3.55;97.36;99216.31;4200539;28;20048;-72
2022/03/05 06:19:44;;;;;;;30.88;11.88;;;;;;;-3.53;97.21;99207.94;4196736;28;20090;-71
2022/03/05 06:21:44;;;;;;;28.42;12.73;;;;;;;-3.54;97.46;99211.72;4199648;28;20044;-72
2022/03/05 06:23:44;;;;;;;35.03;13.38;;;;;;;-3.52;96.28;99206.84;4191190;28;20056;-72
2022/03/05 06:25:45;;;;;;;30.00;12.90;;;;;;;-3.49;96.61;99211.72;4188806;28;20072;-71
2022/03/05 06:27:46;;;;;;;29.05;13.07;;;;;;;-3.50;95.86;99210.91;4188664;28;20139;-71
2022/03/05 06:29:46;;;;;;;25.35;13.07;;;;;;;-3.48;95.83;99216.84;4189328;28;20443;-71
2022/03/05 06:31:46;;;;;;;37.70;12.90;;;;;;;-3.50;96.01;99210.09;4189372;28;20101;-71
2022/03/05 06:33:47;;;;;;;30.02;12.95;;;;;;;-3.52;96.46;99201.44;4200215;28;20032;-71
2022/03/05 06:35:47;;;;;;;30.60;12.77;;;;;;;-3.52;96.82;99214.97;4205043;28;20039;-72
2022/03/05 06:37:47;;;;;;;36.83;14.18;;;;;;;-3.53;96.83;99216.84;4197325;28;20514;-72
2022/03/05 06:39:48;;;;;;;33.30;14.27;;;;;;;-3.55;96.59;99210.91;4194836;28;20746;-72
2022/03/05 06:41:49;;;;;;;31.02;13.57;;;;;;;-3.54;96.55;99214.44;4118286;28;20142;-71
2022/03/05 06:43:50;;;;;;;30.88;13.55;;;;;;;-3.63;97.00;99206.03;4193193;28;20131;-71
2022/03/05 06:45:50;;;;;;;29.73;12.88;;;;;;;-3.65;97.36;99213.56;4189040;28;20040;-72
2022/03/05 06:47:50;;;;;;;34.45;14.55;;;;;;;-3.67;98.06;99215.75;4192935;28;20459;-72
2022/03/05 06:49:51;;;;;;;31.10;12.25;;;;;;;-3.69;99.19;99218.72;4193487;28;20472;-72
2022/03/05 06:51:51;;;;;;;33.90;12.68;;;;;;;-3.67;98.19;99218.44;4190633;28;20124;-72
2022/03/05 06:53:51;;;;;;;34.13;13.55;;;;;;;-3.66;98.19;99220.06;4195086;28;20119;-72
2022/03/05 06:55:51;;;;;;;31.42;13.02;;;;;;;-3.67;97.75;99219.25;4204493;28;20075;-72
2022/03/05 06:57:52;;;;;;;34.67;14.02;;;;;;;-3.66;97.25;99220.06;4202523;28;20043;-72
2022/03/05 06:59:53;;;;;;;30.42;12.65;;;;;;;-3.67;97.32;99218.44;4189150;28;20060;-72
2022/03/05 07:01:53;;;;;;;30.73;12.43;;;;;;;-3.65;96.84;99223.59;4195082;28;20044;-72
2022/03/05 07:03:54;;;;;;;29.42;11.57;;;;;;;-3.64;96.64;99222.50;4194090;28;20452;-71
2022/03/05 07:05:54;;;;;;;36.40;15.20;;;;;;;-3.61;96.99;99227.38;4189075;28;20416;-71
2022/03/05 07:07:54;;;;;;;31.88;13.15;;;;;;;-3.60;96.70;99229.81;4204009;28;20040;-71
2022/03/05 07:09:55;;;;;;;27.63;12.07;;;;;;;-3.61;96.44;99232.81;4197993;28;20033;-72
2022/03/05 07:11:55;;;;;;;28.20;12.25;;;;;;;-3.61;97.08;99239.03;4188842;28;20503;-72
2022/03/05 07:13:56;;;;;;;30.83;12.38;;;;;;;-3.61;97.95;99246.31;4197924;28;20047;-72
2022/03/05 07:15:56;;;;;;;29.23;12.50;;;;;;;-3.63;98.58;99235.78;4189085;28;20048;-72
2022/03/05 07:17:56;;;;;;;30.75;13.55;;;;;;;-3.62;98.70;99242.00;4188249;28;20483;-72
2022/03/05 07:19:57;;;;;;;34.17;14.32;;;;;;;-3.62;98.92;99229.28;4188723;28;20044;-72
2022/03/05 07:21:57;;;;;;;30.02;13.15;;;;;;;-3.62;99.47;99242.81;4188888;28;20045;-72
2022/03/05 07:24:00;;;;;;;38.75;14.38;;;;;;;-3.58;99.68;99226.84;4188951;28;20115;-71
2022/03/05 07:26:01;;;;;;;36.35;12.80;;;;;;;-3.54;100.00;99231.47;4188389;28;20068;-71
2022/03/05 07:28:03;;;;;;;32.35;14.15;;;;;;;-3.51;99.72;99228.22;4194691;28;20024;-71
2022/03/05 07:30:04;;;;;;;36.15;15.13;;;;;;;-3.47;100.00;99236.63;4198019;28;20031;-71
2022/03/05 07:32:05;;;;;;;40.00;13.32;;;;;;;-3.45;100.00;99232.56;4196276;28;20522;-72
2022/03/05 07:34:05;;;;;;;37.60;15.00;;;;;;;-3.37;100.00;99230.41;4193381;28;20047;-72
2022/03/05 07:36:05;;;;;;;29.98;13.43;;;;;;;-3.35;100.00;99233.66;4194152;28;20306;-72
2022/03/05 07:38:06;;;;;;;41.00;17.02;;;;;;;-3.26;100.00;99235.56;4194001;28;20037;-72
2022/03/05 07:40:07;;;;;;;37.63;14.75;;;;;;;-3.20;100.00;99239.91;4197828;28;20047;-72
2022/03/05 07:42:07;;;;;;;34.30;13.73;;;;;;;-3.12;100.00;99247.50;4202446;28;20038;-72
2022/03/05 07:44:09;;;;;;;39.03;16.90;;;;;;;-3.10;100.00;99247.22;4189924;28;20945;-72
2022/03/05 07:46:09;;;;;;;39.10;16.20;;;;;;;-3.06;100.00;99247.47;4203790;28;20129;-72
2022/03/05 07:48:10;;;;;;;36.47;14.88;;;;;;;-3.04;100.00;99248.84;4202729;28;20353;-72
2022/03/05 07:50:10;;;;;;;37.58;15.48;;;;;;;-2.93;100.00;99249.66;4194294;28;20573;-72
2022/03/05 07:52:11;;;;;;;42.80;16.00;;;;;;;-2.85;100.00;99259.94;4189739;28;20070;-72
2022/03/05 07:54:11;;;;;;;41.03;16.95;;;;;;;-2.77;100.00;99258.59;4188252;28;20016;-72
2022/03/05 07:56:11;;;;;;;31.33;14.38;;;;;;;-2.68;100.00;99257.78;4188219;28;20464;-72
2022/03/05 07:58:12;;;;;;;34.50;14.52;;;;;;;-2.61;100.00;99250.19;4187338;28;20025;-72
2022/03/05 08:00:13;;;;;;;36.47;13.70;;;;;;;-2.52;100.00;99260.47;4198155;28;20054;-72
2022/03/05 08:02:15;;;;;;;35.05;13.55;;;;;;;-2.48;100.00;99265.09;4199588;28;20452;-72
2022/03/05 08:04:16;;;;;;;30.95;14.60;;;;;;;-2.42;100.00;99266.69;4187300;28;20031;-71
2022/03/05 08:06:16;;;;;;;42.08;15.63;;;;;;;-2.29;100.00;99266.13;4190702;28;20025;-71
2022/03/05 08:08:16;;;;;;;38.22;14.13;;;;;;;-2.21;100.00;99262.03;4193019;28;20027;-72
2022/03/05 08:10:17;;;;;;;33.65;13.25;;;;;;;-2.15;100.00;99270.94;4193983;28;20028;-72
2022/03/05 08:12:17;;;;;;;36.72;15.02;;;;;;;-2.05;98.75;99271.75;4188340;28;20130;-72
2022/03/05 08:14:17;;;;;;;37.65;14.90;;;;;;;-1.94;96.01;99261.66;4191991;28;20354;-71
2022/03/05 08:16:18;;;;;;;33.03;13.57;;;;;;;-1.81;94.26;99273.84;4186694;28;20640;-72
2022/03/05 08:18:19;;;;;;;30.48;13.95;;;;;;;-1.70;94.46;99270.78;4184569;28;20105;-72
2022/03/05 08:20:22;;;;;;;34.38;15.43;;;;;;;-1.67;94.08;99269.41;4186647;28;20082;-72
2022/03/05 08:22:22;;;;;;;33.17;13.80;;;;;;;-1.64;95.54;99266.16;4184629;28;20037;-72
2022/03/05 08:24:23;;;;;;;36.83;15.30;;;;;;;-1.59;95.55;99270.75;4187524;28;20651;-72
2022/03/05 08:26:24;;;;;;;29.38;14.20;;;;;;;-1.55;94.83;99271.81;4184003;28;20076;-72
2022/03/05 08:28:24;;;;;;;33.83;14.27;;;;;;;-1.52;94.16;99274.78;4186729;28;20061;-72
2022/03/05 08:30:25;;;;;;;35.33;14.25;;;;;;;-1.46;92.97;99276.38;4192812;28;20498;-72
2022/03/05 08:32:25;;;;;;;28.75;13.10;;;;;;;-1.40;93.04;99277.19;4192840;28;20056;-71
2022/03/05 08:34:25;;;;;;;34.38;14.52;;;;;;;-1.37;93.33;99273.09;4190893;28;20481;-71
2022/03/05 08:36:26;;;;;;;29.92;13.73;;;;;;;-1.27;92.13;99273.00;4193149;28;20041;-71
2022/03/05 08:38:31;;;;;;;30.35;14.73;;;;;;;-1.20;92.99;99268.09;4189300;28;20120;-71
2022/03/05 08:40:31;;;;;;;32.90;15.15;;;;;;;-1.15;92.50;99265.34;4193082;28;20051;-71
2022/03/05 08:42:31;;;;;;;35.53;15.05;;;;;;;-1.10;92.51;99270.72;4192664;28;20044;-71
2022/03/05 08:44:32;;;;;;;29.90;14.45;;;;;;;-1.07;91.90;99274.81;4193779;28;20075;-71
2022/03/05 08:46:32;;;;;;;30.75;14.38;;;;;;;-1.04;90.80;99272.31;4192978;28;20083;-71
2022/03/05 08:48:32;;;;;;;29.85;13.68;;;;;;;-1.00;90.95;99269.84;4192256;28;20079;-71
2022/03/05 08:50:35;;;;;;;27.42;13.70;;;;;;;-0.91;90.67;99268.13;4192866;28;20037;-72
2022/03/05 08:52:39;;;;;;;30.40;15.68;;;;;;;-0.86;89.85;99268.09;4190315;28;20029;-72
2022/03/05 08:54:39;;;;;;;28.23;13.52;;;;;;;-0.86;89.16;99263.47;4190710;28;20143;-72
2022/03/05 08:56:39;;;;;;;25.00;12.05;;;;;;;-0.80;89.17;99266.97;4191955;28;20064;-72
2022/03/05 08:58:40;;;;;;;26.02;13.60;;;;;;;-0.72;88.13;99265.56;4191321;28;20459;-72
2022/03/05 09:00:40;;;;;;;30.80;13.82;;;;;;;-0.68;85.82;99274.75;4191175;28;20052;-72
2022/03/05 09:02:42;;;;;;;30.15;13.52;;;;;;;-0.60;86.40;99271.41;4193618;28;20042;-72
2022/03/05 09:04:42;;;;;;;28.73;11.95;;;;;;;-0.55;87.06;99267.88;4189437;28;20033;-71
2022/03/05 09:06:43;;;;;;;25.30;11.35;;;;;;;-0.45;87.24;99265.03;4194415;28;20037;-71
2022/03/05 09:08:43;;;;;;;22.10;10.90;;;;;;;-0.41;85.43;99263.38;4191709;28;20032;-71
2022/03/05 09:10:44;;;;;;;25.98;13.02;;;;;;;-0.39;84.72;99258.47;4191139;28;20801;-72
2022/03/05 09:12:44;;;;;;;24.90;11.63;;;;;;;-0.37;84.17;99257.06;4192385;28;20097;-72
2022/03/05 09:14:46;;;;;;;23.10;10.77;;;;;;;-0.31;84.34;99255.13;4192673;28;20403;-71
2022/03/05 09:16:47;;;;;;;24.90;10.02;;;;;;;-0.25;83.20;99262.09;4188886;28;20422;-72